Time;durP1;ratioP1;P1;durP2;ratioP2;P2;SDS_P1;SDS_P2;PMS_P1;PMS_P2;Temp;Humidity;BMP_temperature;BMP_pressure;BME280_temperature;BME280_humidity;BME280_pressure;Samples;Min_cycle;Max_cycle;Signal;HPM_P1;HPM_P2
2021/06/08 00:00:56;;;;;;;;;;;;;;;18.23;67.95;100824.34;5047474;27;102816;-72
2021/06/08 00:03:22;;;;;;;;;;;;;;;18.24;68.00;100828.72;5033682;27;102930;-72
2021/06/08 00:05:48;;;;;;;;;;;;;;;18.24;68.25;100828.72;5041802;27;103864;-72
2021/06/08 00:08:14;;;;;;;;;;;;;;;18.23;67.95;100825.16;5046635;27;102149;-72
2021/06/08 00:10:42;;;;;;;;;;;;;;;18.23;67.91;100821.59;5044962;27;102158;-72
2021/06/08 00:13:08;;;;;;;;;;;;;;;18.22;68.20;100819.97;5050309;27;102694;-72
2021/06/08 00:15:34;;;;;;;;;;;;;;;18.23;68.30;100818.81;5044019;27;102680;-72
2021/06/08 00:18:00;;;;;;;;;;;;;;;18.23;68.01;100818.81;5049849;27;102444;-71
2021/06/08 00:20:26;;;;;;;;;;;;;;;18.23;67.93;100813.31;5043324;27;102278;-71
2021/06/08 00:22:52;;;;;;;;;;;;;;;18.23;68.14;100821.59;5041572;27;102634;-71
2021/06/08 00:25:19;;;;;;;;;;;;;;;18.23;67.79;100818.81;5040872;27;103708;-72
2021/06/08 00:27:47;;;;;;;;;;;;;;;18.23;67.93;100813.31;5047926;27;102511;-72
2021/06/08 00:30:13;;;;;;;;;;;;;;;18.22;68.29;100817.22;5047559;27;102891;-71
2021/06/08 00:32:39;;;;;;;;;;;;;;;18.22;68.28;100834.53;5045890;27;102807;-72
2021/06/08 00:35:06;;;;;;;;;;;;;;;18.23;68.45;100829.84;5044341;27;102814;-71
2021/06/08 00:37:32;;;;;;;;;;;;;;;18.21;67.98;100826.59;5048108;27;102522;-72
2021/06/08 00:39:58;;;;;;;;;;;;;;;18.22;67.88;100818.03;5039950;27;102883;-72
2021/06/08 00:42:28;;;;;;;;;;;;;;;18.21;68.05;100826.59;5049325;27;102539;-71
2021/06/08 00:44:56;;;;;;;;;;;;;;;18.22;67.78;100825.47;5045873;27;103612;-72
2021/06/08 00:47:22;;;;;;;;;;;;;;;18.22;68.02;100819.97;5045580;27;102536;-72
2021/06/08 00:49:48;;;;;;;;;;;;;;;18.22;68.18;100822.72;5047707;27;102263;-72
2021/06/08 00:52:15;;;;;;;;;;;;;;;18.19;68.20;100818.66;5051009;27;102355;-71
2021/06/08 00:54:41;;;;;;;;;;;;;;;18.21;68.68;100821.06;5046367;27;103859;-72
2021/06/08 00:57:07;;;;;;;;;;;;;;;18.20;68.12;100824.97;5039168;27;103138;-72
2021/06/08 00:59:33;;;;;;;;;;;;;;;18.20;68.35;100813.94;5039263;27;102020;-72
2021/06/08 01:02:01;;;;;;;;;;;;;;;18.20;68.42;100819.47;5042542;27;102299;-71
2021/06/08 01:04:27;;;;;;;;;;;;;;;18.19;68.29;100823.34;5047411;27;103853;-72
2021/06/08 01:06:53;;;;;;;;;;;;;;;18.19;68.71;100813.16;5036364;27;102204;-71
2021/06/08 01:09:20;;;;;;;;;;;;;;;18.19;68.82;100812.34;5047615;27;102144;-72
2021/06/08 01:11:46;;;;;;;;;;;;;;;18.19;68.82;100812.34;5052410;27;102960;-71
2021/06/08 01:14:12;;;;;;;;;;;;;;;18.17;68.64;100815.41;5043589;27;103715;-71
2021/06/08 01:16:39;;;;;;;;;;;;;;;18.19;68.31;100817.84;5043614;27;102387;-71
2021/06/08 01:19:07;;;;;;;;;;;;;;;18.18;68.80;100817.03;5033639;27;102235;-72
2021/06/08 01:21:35;;;;;;;;;;;;;;;18.18;68.88;100824.50;5039092;27;102624;-72
2021/06/08 01:24:02;;;;;;;;;;;;;;;18.18;68.29;100819.00;5047207;27;103532;-72
2021/06/08 01:26:29;;;;;;;;;;;;;;;18.18;68.80;100819.00;5045016;27;102751;-72
2021/06/08 01:28:57;;;;;;;;;;;;;;;18.19;68.29;100823.34;5047401;27;102541;-72
2021/06/08 01:31:25;;;;;;;;;;;;;;;18.18;68.53;100819.78;5048211;27;102422;-72
2021/06/08 01:33:51;;;;;;;;;;;;;;;18.17;68.32;100817.34;5043059;27;103352;-72
2021/06/08 01:36:19;;;;;;;;;;;;;;;18.18;68.33;100821.75;5034236;27;102918;-71
2021/06/08 01:38:49;;;;;;;;;;;;;;;18.18;68.78;100830.00;5046003;27;102033;-72
2021/06/08 01:41:17;;;;;;;;;;;;;;;18.17;68.70;100829.16;5042633;27;103853;-72
2021/06/08 01:43:45;;;;;;;;;;;;;;;18.17;68.40;100837.44;5041934;27;103665;-72
2021/06/08 01:46:11;;;;;;;;;;;;;;;18.17;68.59;100833.88;5032923;27;102156;-71
2021/06/08 01:48:38;;;;;;;;;;;;;;;18.17;68.76;100831.91;5045389;27;102659;-72
2021/06/08 01:51:11;;;;;;;;;;;;;;;18.17;68.62;100831.91;5048097;27;102349;-72
2021/06/08 01:53:39;;;;;;;;;;;;;;;18.16;68.36;100827.56;5040980;27;104200;-72
2021/06/08 01:56:08;;;;;;;;;;;;;;;18.16;68.36;100835.00;5036161;27;102760;-72
2021/06/08 01:58:39;;;;;;;;;;;;;;;18.17;68.23;100842.13;5037666;27;102754;-72
2021/06/08 02:01:09;;;;;;;;;;;;;;;18.17;68.33;100836.63;5045389;27;102482;-72
2021/06/08 02:03:38;;;;;;;;;;;;;;;18.15;68.35;100828.69;5040942;27;104028;-72
2021/06/08 02:06:09;;;;;;;;;;;;;;;18.16;68.39;100835.00;5040264;27;102711;-71
2021/06/08 02:08:38;;;;;;;;;;;;;;;18.15;68.24;100845.22;5047029;27;102189;-71
2021/06/08 02:11:08;;;;;;;;;;;;;;;18.16;68.45;100835.00;5044491;27;102251;-71
2021/06/08 02:13:40;;;;;;;;;;;;;;;18.15;68.77;100836.16;5047948;27;104042;-72
2021/06/08 02:16:11;;;;;;;;;;;;;;;18.15;68.68;100830.63;5038932;27;102439;-72
2021/06/08 02:18:40;;;;;;;;;;;;;;;18.14;68.72;100838.09;5039290;27;102033;-72
2021/06/08 02:21:08;;;;;;;;;;;;;;;18.15;68.41;100833.41;5046722;27;102480;-72
2021/06/08 02:23:35;;;;;;;;;;;;;;;18.14;68.52;100837.25;5047872;27;102395;-72
2021/06/08 02:26:02;;;;;;;;;;;;;;;18.14;68.41;100840.00;5041005;27;102316;-72
2021/06/08 02:28:31;;;;;;;;;;;;;;;18.14;68.42;100835.34;5064059;27;102615;-72
2021/06/08 02:31:02;;;;;;;;;;;;;;;18.14;68.41;100843.59;5050154;27;102678;-71
2021/06/08 02:33:28;;;;;;;;;;;;;;;18.14;68.33;100845.53;5042814;27;103889;-72
2021/06/08 02:35:56;;;;;;;;;;;;;;;18.14;68.71;100848.28;5043400;27;102551;-72
2021/06/08 02:38:23;;;;;;;;;;;;;;;18.14;68.81;100843.59;5037815;27;102605;-72
2021/06/08 02:40:50;;;;;;;;;;;;;;;18.14;68.28;100837.25;5048225;27;102394;-72
2021/06/08 02:43:18;;;;;;;;;;;;;;;18.14;68.07;100848.28;5047454;27;103982;-72
2021/06/08 02:45:46;;;;;;;;;;;;;;;18.14;68.70;100842.75;5034096;27;102429;-71
2021/06/08 02:48:13;;;;;;;;;;;;;;;18.14;68.25;100840.84;5047475;27;102418;-72
2021/06/08 02:50:39;;;;;;;;;;;;;;;18.14;68.57;100840.00;5043819;27;102278;-72
2021/06/08 02:53:06;;;;;;;;;;;;;;;18.15;68.16;100855.44;5045939;27;104070;-72
2021/06/08 02:55:32;;;;;;;;;;;;;;;18.13;68.42;100847.47;5047200;27;102206;-72
2021/06/08 02:57:59;;;;;;;;;;;;;;;18.14;68.21;100848.28;5046878;27;102376;-72
2021/06/08 03:00:26;;;;;;;;;;;;;;;18.14;68.10;100849.13;5052702;27;102279;-72
2021/06/08 03:02:55;;;;;;;;;;;;;;;18.14;68.03;100853.78;5045913;27;103851;-72
2021/06/08 03:05:24;;;;;;;;;;;;;;;18.15;67.97;100849.91;5044561;27;102714;-73
2021/06/08 03:07:52;;;;;;;;;;;;;;;18.15;67.70;100849.91;5042813;27;102317;-71
2021/06/08 03:10:19;;;;;;;;;;;;;;;18.15;67.76;100847.16;5034613;27;102803;-72
2021/06/08 03:12:48;;;;;;;;;;;;;;;18.15;67.85;100860.94;5047694;27;102750;-72
2021/06/08 03:15:16;;;;;;;;;;;;;;;18.15;67.78;100860.94;5039058;27;102602;-72
2021/06/08 03:17:44;;;;;;;;;;;;;;;18.15;68.20;100867.25;5039254;27;102531;-72
2021/06/08 03:20:17;;;;;;;;;;;;;;;18.15;68.17;100861.75;5035491;27;102717;-72
2021/06/08 03:22:45;;;;;;;;;;;;;;;18.16;68.12;100868.88;5045036;27;104168;-71
2021/06/08 03:25:13;;;;;;;;;;;;;;;18.15;68.41;100870.00;5037293;27;102169;-72
2021/06/08 03:27:40;;;;;;;;;;;;;;;18.15;68.70;100878.28;5039421;27;102369;-72
2021/06/08 03:30:06;;;;;;;;;;;;;;;18.16;68.29;100873.56;5037483;27;102550;-71
2021/06/08 03:32:34;;;;;;;;;;;;;;;18.16;68.65;100873.56;5047003;27;104026;-72
2021/06/08 03:35:01;;;;;;;;;;;;;;;18.15;68.12;100871.97;5046405;27;102706;-72
2021/06/08 03:37:29;;;;;;;;;;;;;;;18.16;68.75;100868.88;5038053;27;102234;-71
2021/06/08 03:39:55;;;;;;;;;;;;;;;18.16;68.25;100870.81;5040593;27;102322;-72
2021/06/08 03:42:22;;;;;;;;;;;;;;;18.16;68.35;100879.09;5041319;27;104041;-71
2021/06/08 03:44:48;;;;;;;;;;;;;;;18.16;68.28;100873.56;5038170;27;102806;-72
2021/06/08 03:47:17;;;;;;;;;;;;;;;18.17;68.44;100883.44;5045638;27;102168;-73
2021/06/08 03:49:43;;;;;;;;;;;;;;;18.17;68.38;100877.94;5050093;27;102189;-73
2021/06/08 03:52:09;;;;;;;;;;;;;;;18.17;68.40;100880.69;5040737;27;103964;-72
2021/06/08 03:54:37;;;;;;;;;;;;;;;18.17;68.59;100880.69;5049723;27;102440;-71
2021/06/08 03:57:03;;;;;;;;;;;;;;;18.17;68.96;100881.50;5040976;27;102520;-72
2021/06/08 03:59:30;;;;;;;;;;;;;;;18.19;68.75;100878.44;5050292;27;102585;-72
2021/06/08 04:01:57;;;;;;;;;;;;;;;18.18;68.71;100885.09;5047119;27;104003;-72
2021/06/08 04:04:23;;;;;;;;;;;;;;;18.18;68.56;100880.41;5041256;27;102638;-72
2021/06/08 04:06:50;;;;;;;;;;;;;;;18.17;68.81;100880.69;5045369;27;102742;-72
2021/06/08 04:09:17;;;;;;;;;;;;;;;18.20;69.02;100882.81;5049290;27;102283;-72
2021/06/08 04:11:50;;;;;;;;;;;;;;;18.20;68.87;100880.06;5033441;27;103945;-72
2021/06/08 04:14:17;;;;;;;;;;;;;;;18.20;69.11;100880.88;5042068;27;102233;-72
2021/06/08 04:16:43;;;;;;;;;;;;;;;18.21;68.78;100878.91;5042651;27;102464;-72
2021/06/08 04:19:10;;;;;;;;;;;;;;;18.21;68.58;100876.16;5044665;27;103356;-72
2021/06/08 04:21:37;;;;;;;;;;;;;;;18.21;68.66;100877.00;5040285;27;102747;-71
2021/06/08 04:24:05;;;;;;;;;;;;;;;18.22;68.77;100883.31;5036502;27;102028;-71
2021/06/08 04:26:32;;;;;;;;;;;;;;;18.23;68.76;100883.00;5042497;27;102575;-72
2021/06/08 04:28:59;;;;;;;;;;;;;;;18.24;68.76;100881.03;5044413;27;102562;-72
2021/06/08 04:31:26;;;;;;;;;;;;;;;18.24;68.91;100884.59;5044564;27;104119;-72
2021/06/08 04:33:52;;;;;;;;;;;;;;;18.25;69.20;100877.19;5046851;27;102157;-72
2021/06/08 04:36:19;;;;;;;;;;;;;;;18.25;68.67;100877.19;5038676;27;102376;-71
2021/06/08 04:38:45;;;;;;;;;;;;;;;18.25;68.87;100866.16;5035562;27;102470;-71
2021/06/08 04:41:12;;;;;;;;;;;;;;;18.27;68.79;100880.41;5032326;27;102988;-71
2021/06/08 04:43:40;;;;;;;;;;;;;;;18.27;68.70;100876.84;5046967;27;102629;-71
2021/06/08 04:46:10;;;;;;;;;;;;;;;18.27;68.83;100874.91;5043914;27;102187;-71
2021/06/08 04:48:36;;;;;;;;;;;;;;;18.27;68.85;100872.16;5052345;27;102359;-71
2021/06/08 04:51:03;;;;;;;;;;;;;;;18.28;68.40;100876.50;5037429;27;104066;-71
2021/06/08 04:53:29;;;;;;;;;;;;;;;18.30;68.70;100885.28;5042126;27;103641;-71
2021/06/08 04:55:55;;;;;;;;;;;;;;;18.31;68.29;100880.59;5036345;27;102628;-71
2021/06/08 04:58:21;;;;;;;;;;;;;;;18.32;68.62;100880.28;5043556;27;102995;-71
2021/06/08 05:00:51;;;;;;;;;;;;;;;18.33;68.13;100876.38;5038610;27;102658;-71
2021/06/08 05:03:22;;;;;;;;;;;;;;;18.35;68.10;100865.84;5036001;27;102889;-72
2021/06/08 05:05:52;;;;;;;;;;;;;;;18.37;68.49;100871.06;5039541;27;102385;-72
2021/06/08 05:08:20;;;;;;;;;;;;;;;18.37;68.03;100869.09;5037864;27;102924;-72
2021/06/08 05:10:48;;;;;;;;;;;;;;;18.39;68.20;100872.38;5033804;27;102741;-72
2021/06/08 05:13:15;;;;;;;;;;;;;;;18.40;68.08;100871.22;5042122;27;102186;-65
2021/06/08 05:15:42;;;;;;;;;;;;;;;18.53;67.93;100879.66;5045466;27;102676;-66
2021/06/08 05:18:11;;;;;;;;;;;;;;;18.64;67.64;100873.53;5047803;27;102492;-66
2021/06/08 05:20:39;;;;;;;;;;;;;;;18.77;67.65;100874.56;5046522;27;102728;-66
2021/06/08 05:23:06;;;;;;;;;;;;;;;18.87;67.32;100870.69;5046321;27;103279;-66
2021/06/08 05:25:33;;;;;;;;;;;;;;;18.92;67.07;100879.59;5048072;27;102460;-66
2021/06/08 05:28:00;;;;;;;;;;;;;;;19.04;66.66;100878.13;5042080;27;103423;-67
2021/06/08 05:30:26;;;;;;;;;;;;;;;19.10;66.60;100879.59;5046025;27;103506;-66
2021/06/08 05:32:52;;;;;;;;;;;;;;;19.17;66.15;100877.97;5036284;27;102784;-69
2021/06/08 05:35:24;;;;;;;;;;;;;;;19.18;66.63;100879.59;5024820;27;103780;-66
2021/06/08 05:37:52;;;;;;;;;;;;;;;19.23;66.88;100884.16;5043813;27;102186;-67
2021/06/08 05:40:19;;;;;;;;;;;;;;;19.31;66.21;100886.09;5042499;27;103906;-67
2021/06/08 05:42:46;;;;;;;;;;;;;;;19.32;66.28;100873.91;5039210;27;102559;-66
2021/06/08 05:45:12;;;;;;;;;;;;;;;19.36;66.53;100888.66;5046151;27;102900;-66
2021/06/08 05:47:39;;;;;;;;;;;;;;;19.41;66.24;100888.50;5051675;27;102542;-67
2021/06/08 05:50:05;;;;;;;;;;;;;;;19.44;65.92;100885.09;5048212;27;103934;-66
2021/06/08 05:52:32;;;;;;;;;;;;;;;19.51;65.76;100889.28;5046913;27;102455;-66
2021/06/08 05:55:00;;;;;;;;;;;;;;;19.51;65.65;100887.38;5048449;27;102502;-67
2021/06/08 05:57:27;;;;;;;;;;;;;;;19.49;65.82;100891.59;5049582;27;102542;-66
2021/06/08 05:59:53;;;;;;;;;;;;;;;19.49;66.17;100880.53;5046344;27;103893;-66
2021/06/08 06:02:19;;;;;;;;;;;;;;;19.51;66.33;100889.28;5036168;27;102910;-66
2021/06/08 06:04:46;;;;;;;;;;;;;;;19.58;66.60;100878.56;5036370;27;102303;-66
2021/06/08 06:07:13;;;;;;;;;;;;;;;19.60;65.99;100881.81;5040332;27;102313;-66
2021/06/08 06:09:39;;;;;;;;;;;;;;;19.67;65.58;100876.63;5032506;27;103869;-66
2021/06/08 06:12:08;;;;;;;;;;;;;;;19.77;65.66;100881.81;5045207;27;102642;-67
2021/06/08 06:14:36;;;;;;;;;;;;;;;19.82;65.46;100878.06;5040406;27;103770;-67
2021/06/08 06:17:03;;;;;;;;;;;;;;;19.90;65.65;100878.00;5034968;27;103909;-67
2021/06/08 06:19:30;;;;;;;;;;;;;;;19.99;64.81;100877.19;5039727;27;104164;-67
2021/06/08 06:21:57;;;;;;;;;;;;;;;20.08;64.00;100876.00;5043309;27;102127;-69
2021/06/08 06:24:23;;;;;;;;;;;;;;;20.08;64.06;100873.22;5039070;27;102520;-67
2021/06/08 06:26:49;;;;;;;;;;;;;;;20.13;64.26;100872.25;5044394;27;102722;-67
2021/06/08 06:29:18;;;;;;;;;;;;;;;20.22;63.93;100866.69;5047010;27;103822;-67
2021/06/08 06:31:45;;;;;;;;;;;;;;;20.24;63.82;100862.44;5041959;27;102434;-67
2021/06/08 06:34:12;;;;;;;;;;;;;;;20.34;63.44;100862.06;5043082;27;102307;-67
2021/06/08 06:36:38;;;;;;;;;;;;;;;20.47;63.96;100864.91;5040380;27;102436;-67
2021/06/08 06:39:06;;;;;;;;;;;;;;;20.55;64.09;100861.31;5043100;27;102677;-67
2021/06/08 06:41:48;;;;;;;;;;;;;;;20.62;62.99;100862.38;5018442;27;102687;-67
2021/06/08 06:44:16;;;;;;;;;;;;;;;20.67;62.81;100866.94;5035942;27;102722;-67
2021/06/08 06:46:45;;;;;;;;;;;;;;;20.73;63.10;100862.00;5034760;27;102311;-68
2021/06/08 06:49:11;;;;;;;;;;;;;;;20.78;62.85;100865.38;5036531;27;103613;-67
2021/06/08 06:51:38;;;;;;;;;;;;;;;20.80;62.80;100871.38;5035162;27;105003;-68
2021/06/08 06:54:04;;;;;;;;;;;;;;;20.76;62.40;100862.13;5035586;27;102100;-67
2021/06/08 06:56:30;;;;;;;;;;;;;;;20.73;62.51;100864.75;5036805;27;102775;-68
2021/06/08 06:58:58;;;;;;;;;;;;;;;20.75;62.56;100857.75;5037550;27;103919;-69
2021/06/08 07:01:25;;;;;;;;;;;;;;;20.91;62.73;100851.63;5034929;27;103272;-68
2021/06/08 07:03:54;;;;;;;;;;;;;;;21.00;62.84;100860.66;5034501;27;102866;-67
2021/06/08 07:06:21;;;;;;;;;;;;;;;21.04;62.16;100861.59;5036066;27;102583;-68
2021/06/08 07:08:49;;;;;;;;;;;;;;;21.09;62.32;100861.38;5040470;27;103934;-66
2021/06/08 07:11:15;;;;;;;;;;;;;;;21.12;61.96;100863.47;5046329;27;102654;-67
2021/06/08 07:13:42;;;;;;;;;;;;;;;21.21;62.77;100860.66;5039696;27;102551;-67
2021/06/08 07:16:08;;;;;;;;;;;;;;;21.24;62.55;100855.25;5037647;27;102465;-67
2021/06/08 07:18:34;;;;;;;;;;;;;;;21.33;62.81;100858.75;5034487;27;103560;-68
2021/06/08 07:21:05;;;;;;;;;;;;;;;21.36;62.56;100857.28;5049575;27;102781;-68
2021/06/08 07:23:31;;;;;;;;;;;;;;;21.45;62.08;100854.41;5047949;27;102759;-67
2021/06/08 07:25:58;;;;;;;;;;;;;;;21.47;62.53;100855.69;5040723;27;102560;-67
2021/06/08 07:28:25;;;;;;;;;;;;;;;21.46;61.73;100850.50;5045911;27;103980;-66
2021/06/08 07:30:51;;;;;;;;;;;;;;;21.49;62.68;100855.34;5051997;27;102603;-67
2021/06/08 07:33:22;;;;;;;;;;;;;;;21.53;63.99;100846.03;5048194;27;102654;-72
2021/06/08 07:35:51;;;;;;;;;;;;;;;21.54;63.30;100853.16;5040038;27;102591;-67
2021/06/08 07:38:20;;;;;;;;;;;;;;;21.62;62.34;100848.69;5037949;27;103949;-68
2021/06/08 07:40:50;;;;;;;;;;;;;;;21.67;62.14;100851.22;5057649;27;102668;-67
2021/06/08 07:43:19;;;;;;;;;;;;;;;21.69;60.32;100848.94;5038666;27;102638;-68
2021/06/08 07:45:48;;;;;;;;;;;;;;;21.68;61.31;100844.56;5036766;27;103522;-67
2021/06/08 07:48:15;;;;;;;;;;;;;;;21.71;61.08;100841.09;5040556;27;103921;-67
2021/06/08 07:50:44;;;;;;;;;;;;;;;21.73;60.87;100849.84;5048911;27;102601;-67
2021/06/08 07:53:11;;;;;;;;;;;;;;;21.88;60.17;100840.06;5044469;27;102665;-67
2021/06/08 07:55:43;;;;;;;;;;;;;;;21.95;59.72;100850.56;5042175;27;102460;-67
2021/06/08 07:58:09;;;;;;;;;;;;;;;21.97;59.58;100849.09;5036758;27;103453;-67
2021/06/08 08:00:35;;;;;;;;;;;;;;;22.01;61.25;100843.66;5049224;27;102672;-68
2021/06/08 08:05:47;;;;;;;;;;;;;;;22.06;60.42;100848.97;5041732;27;103014;-67
2021/06/08 08:08:15;;;;;;;;;;;;;;;22.01;59.84;100843.66;5035148;27;104135;-67
2021/06/08 08:10:43;;;;;;;;;;;;;;;22.06;60.14;100846.19;5053754;27;102547;-68
2021/06/08 08:13:09;;;;;;;;;;;;;;;22.16;59.88;100850.50;5038759;27;102632;-68
2021/06/08 08:15:35;;;;;;;;;;;;;;;22.09;59.52;100851.06;5040773;27;104016;-67
2021/06/08 08:18:03;;;;;;;;;;;;;;;22.12;58.85;100849.56;5042171;27;104057;-67
2021/06/08 08:20:39;;;;;;;;;;;;;;;22.13;59.24;100849.19;5049581;27;102950;-67
2021/06/08 08:23:05;;;;;;;;;;;;;;;22.21;58.37;100848.28;5036483;27;104053;-67
2021/06/08 08:25:32;;;;;;;;;;;;;;;22.31;57.95;100842.28;5046825;27;102712;-67
2021/06/08 08:27:59;;;;;;;;;;;;;;;22.35;58.27;100847.94;5042886;27;104501;-67
2021/06/08 08:30:26;;;;;;;;;;;;;;;22.35;58.10;100847.94;5042573;27;102723;-69
2021/06/08 08:32:52;;;;;;;;;;;;;;;22.22;58.30;100849.94;5048671;27;102946;-70
2021/06/08 08:35:18;;;;;;;;;;;;;;;22.34;57.99;100845.53;5044894;27;102559;-69
2021/06/08 08:37:44;;;;;;;;;;;;;;;22.33;57.48;100838.38;5043927;27;105643;-69
2021/06/08 08:40:11;;;;;;;;;;;;;;;22.20;57.92;100846.69;5041363;27;102851;-69
2021/06/08 08:42:38;;;;;;;;;;;;;;;22.34;58.06;100848.31;5037780;27;102445;-70
2021/06/08 08:45:06;;;;;;;;;;;;;;;22.39;57.68;100836.97;5043125;27;102919;-69
2021/06/08 08:47:33;;;;;;;;;;;;;;;22.34;58.02;100845.53;5042564;27;102888;-69
2021/06/08 08:50:00;;;;;;;;;;;;;;;22.40;57.41;100844.16;5037789;27;102570;-69
2021/06/08 08:52:26;;;;;;;;;;;;;;;22.40;57.02;100838.59;5037127;27;102718;-74
2021/06/08 08:54:53;;;;;;;;;;;;;;;22.31;57.37;100830.41;5036988;27;102502;-75
2021/06/08 08:57:20;;;;;;;;;;;;;;;22.18;57.64;100837.09;5037322;27;104070;-74
2021/06/08 08:59:46;;;;;;;;;;;;;;;22.11;57.89;100842.38;5043343;27;102894;-75
2021/06/08 09:02:14;;;;;;;;;;;;;;;22.10;58.17;100844.34;5043096;27;102608;-74
2021/06/08 09:04:40;;;;;;;;;;;;;;;22.01;57.67;100840.91;5049055;27;102369;-74
2021/06/08 09:07:06;;;;;;;;;;;;;;;21.88;58.45;100844.81;5047837;27;103885;-74
2021/06/08 09:09:33;;;;;;;;;;;;;;;21.86;58.90;100847.13;5043963;27;102500;-74
2021/06/08 09:12:04;;;;;;;;;;;;;;;21.91;59.69;100846.88;5037202;27;102481;-74
2021/06/08 09:14:30;;;;;;;;;;;;;;;22.01;59.43;100850.00;5048625;27;102409;-74
2021/06/08 09:16:57;;;;;;;;;;;;;;;22.00;59.16;100850.38;5046596;27;103671;-74
2021/06/08 09:19:28;;;;;;;;;;;;;;;22.07;59.80;100842.28;5042893;27;102185;-74
2021/06/08 09:21:55;;;;;;;;;;;;;;;22.08;59.45;100839.16;5037356;27;102952;-68
2021/06/08 09:24:22;;;;;;;;;;;;;;;22.15;58.04;100848.91;5043089;27;102492;-68
2021/06/08 09:26:50;;;;;;;;;;;;;;;22.14;57.71;100845.28;5048683;27;104009;-68
2021/06/08 09:29:26;;;;;;;;;;;;;;;22.15;57.79;100841.38;5042799;27;102559;-68
2021/06/08 09:32:07;;;;;;;;;;;;;;;22.14;57.93;100841.69;5041100;27;102804;-68
2021/06/08 09:34:35;;;;;;;;;;;;;;;22.33;57.99;100843.94;5044895;27;102064;-74
2021/06/08 09:37:03;;;;;;;;;;;;;;;22.30;58.37;100840.69;5036486;27;104273;-75
2021/06/08 09:39:29;;;;;;;;;;;;;;;22.24;58.85;100838.50;5039293;27;102223;-75
2021/06/08 09:41:56;;;;;;;;;;;;;;;22.22;58.43;100833.31;5034658;27;102631;-75
2021/06/08 09:44:22;;;;;;;;;;;;;;;22.17;58.30;100836.28;5036445;27;103116;-75
2021/06/08 09:46:50;;;;;;;;;;;;;;;22.04;58.51;100831.91;5041355;27;103690;-75
2021/06/08 09:49:17;;;;;;;;;;;;;;;21.97;58.36;100837.19;5037581;27;102431;-75
2021/06/08 09:51:49;;;;;;;;;;;;;;;22.01;58.30;100832.59;5042249;27;102700;-75
2021/06/08 09:54:39;;;;;;;;;;;;;;;22.04;58.02;100827.16;5042494;27;102113;-75
2021/06/08 09:57:13;;;;;;;;;;;;;;;22.13;57.87;100829.81;5032974;27;103642;-75
2021/06/08 09:59:39;;;;;;;;;;;;;;;22.30;57.12;100818.50;5040356;27;102701;-69
2021/06/08 10:02:19;;;;;;;;;;;;;;;22.31;56.25;100825.66;5037469;27;102611;-68
2021/06/08 10:04:45;;;;;;;;;;;;;;;22.36;56.27;100827.41;5034445;27;102578;-68
2021/06/08 10:07:24;;;;;;;;;;;;;;;22.38;56.05;100824.28;5039862;27;102952;-68
2021/06/08 10:10:00;;;;;;;;;;;;;;;22.52;56.18;100813.63;5041145;27;102224;-68
2021/06/08 10:12:27;;;;;;;;;;;;;;;22.67;55.68;100810.09;5041698;27;102647;-68
2021/06/08 10:15:03;;;;;;;;;;;;;;;22.60;54.88;100803.53;5042635;27;102398;-68
2021/06/08 10:17:29;;;;;;;;;;;;;;;22.58;54.91;100803.91;5040124;27;103826;-68
2021/06/08 10:19:55;;;;;;;;;;;;;;;22.59;56.02;100796.38;5034405;27;103413;-68
2021/06/08 10:22:39;;;;;;;;;;;;;;;22.75;55.94;100800.81;5041466;27;103243;-69
2021/06/08 10:25:08;;;;;;;;;;;;;;;22.84;55.76;100791.56;5035227;27;102180;-69
2021/06/08 10:27:35;;;;;;;;;;;;;;;22.74;55.02;100787.31;5038907;27;103899;-69
2021/06/08 10:30:01;;;;;;;;;;;;;;;22.80;54.31;100774.81;5025420;27;102214;-68
2021/06/08 10:32:28;;;;;;;;;;;;;;;22.71;55.02;100776.91;5035469;27;103223;-69
2021/06/08 10:34:54;;;;;;;;;;;;;;;22.66;55.71;100766.88;5042756;27;102530;-68
2021/06/08 10:37:20;;;;;;;;;;;;;;;22.75;56.11;100767.53;5036784;27;103876;-69
2021/06/08 10:39:47;;;;;;;;;;;;;;;22.70;55.94;100767.78;5044397;27;101963;-69
2021/06/08 10:42:16;;;;;;;;;;;;;;;22.56;55.36;100759.06;5046697;27;102527;-69
2021/06/08 10:44:42;;;;;;;;;;;;;;;22.46;54.90;100754.00;5037519;27;102437;-68
2021/06/08 10:47:20;;;;;;;;;;;;;;;22.37;55.12;100756.13;5038802;27;103870;-68
2021/06/08 10:49:46;;;;;;;;;;;;;;;22.39;54.63;100748.25;5047065;27;102206;-69
2021/06/08 10:52:14;;;;;;;;;;;;;;;22.52;54.45;100747.06;5037421;27;102310;-69
2021/06/08 10:54:42;;;;;;;;;;;;;;;22.68;56.20;100736.00;5044477;27;102439;-68
2021/06/08 10:57:13;;;;;;;;;;;;;;;22.75;56.06;100739.78;5038533;27;103810;-69
2021/06/08 10:59:42;;;;;;;;;;;;;;;22.80;56.13;100738.75;5043202;27;102515;-68
2021/06/08 11:02:09;;;;;;;;;;;;;;;22.84;56.13;100724.97;5039371;27;102543;-69
2021/06/08 11:04:49;;;;;;;;;;;;;;;22.78;55.86;100735.50;5040275;27;102756;-69
2021/06/08 11:07:37;;;;;;;;;;;;;;;22.88;56.41;100725.88;5041179;27;102860;-69
2021/06/08 11:10:35;;;;;;;;;;;;;;;23.03;56.26;100716.81;5059937;27;102519;-69
2021/06/08 11:13:17;;;;;;;;;;;;;;;22.91;56.18;100714.06;5033849;27;102336;-69
2021/06/08 11:15:44;;;;;;;;;;;;;;;22.76;56.23;100722.00;5044310;27;102911;-69
2021/06/08 11:18:25;;;;;;;;;;;;;;;22.73;56.65;100719.94;5033196;27;103805;-69
2021/06/08 11:21:23;;;;;;;;;;;;;;;22.78;56.21;100708.56;5047118;27;102217;-69
2021/06/08 11:23:54;;;;;;;;;;;;;;;22.81;56.19;100712.59;5046463;27;102625;-69
2021/06/08 11:26:41;;;;;;;;;;;;;;;22.77;55.81;100709.72;5044328;27;102720;-69
2021/06/08 11:29:08;;;;;;;;;;;;;;;22.70;55.94;100703.19;5037441;27;103849;-68
2021/06/08 11:35:30;;;;;;;6.30;2.25;;;;;;;22.48;56.56;100707.31;5075999;27;102117;-70
2021/06/08 11:38:02;;;;;;;7.47;2.65;;;;;;;22.34;56.89;100701.38;5059478;27;102580;-70
2021/06/08 11:40:47;;;;;;;3.40;2.70;;;;;;;22.25;56.96;100698.72;5064032;27;102515;-69
2021/06/08 11:43:46;;;;;;;6.32;2.40;;;;;;;22.22;57.22;100700.25;5063235;27;102518;-69
2021/06/08 11:46:14;;;;;;;4.35;2.45;;;;;;;22.23;57.81;100690.75;5057290;27;102480;-69
2021/06/08 11:48:43;;;;;;;2.95;2.13;;;;;;;22.21;57.56;100687.53;5058936;27;102420;-70
2021/06/08 11:51:34;;;;;;;12.23;2.50;;;;;;;22.16;57.23;100679.47;5055727;27;103908;-70
2021/06/08 11:54:03;;;;;;;7.25;2.60;;;;;;;22.18;57.42;100677.16;5058096;27;102055;-70
2021/06/08 11:56:49;;;;;;;7.20;2.38;;;;;;;22.16;57.33;100668.38;5063814;27;101947;-70
2021/06/08 11:59:17;;;;;;;5.32;2.85;;;;;;;22.14;57.56;100673.44;5066741;27;102408;-70
2021/06/08 12:01:47;;;;;;;6.13;2.60;;;;;;;22.13;57.64;100669.03;5061970;27;104058;-71
2021/06/08 12:04:14;;;;;;;5.13;2.75;;;;;;;22.07;57.47;100670.47;5062319;27;102333;-70
2021/06/08 12:07:03;;;;;;;4.43;2.28;;;;;;;21.96;57.53;100686.78;5061141;27;102411;-69
2021/06/08 12:09:36;;;;;;;4.95;2.15;;;;;;;21.92;57.62;100668.41;5065849;27;102615;-68
2021/06/08 12:12:07;;;;;;;7.18;2.80;;;;;;;21.95;56.78;100670.47;5057185;27;103728;-68
2021/06/08 12:14:34;;;;;;;11.55;3.10;;;;;;;22.05;56.29;100668.03;5055170;27;102763;-69
2021/06/08 12:17:03;;;;;;;12.07;2.92;;;;;;;22.11;56.00;100665.00;5052247;27;102205;-68
2021/06/08 12:19:32;;;;;;;10.40;3.05;;;;;;;22.23;56.40;100654.72;5054480;27;102252;-68
2021/06/08 12:22:18;;;;;;;8.25;2.58;;;;;;;22.30;56.69;100663.25;5053721;27;103868;-68
2021/06/08 12:24:52;;;;;;;8.95;2.10;;;;;;;22.40;57.13;100661.94;5056365;27;102517;-68
2021/06/08 12:27:18;;;;;;;13.13;2.92;;;;;;;22.44;56.66;100667.59;5060039;27;103679;-68
2021/06/08 12:29:52;;;;;;;6.97;2.40;;;;;;;22.44;56.88;100668.41;5060478;27;102543;-69
2021/06/08 12:32:18;;;;;;;9.68;2.72;;;;;;;22.53;56.34;100671.81;5054794;27;103605;-69
2021/06/08 12:34:49;;;;;;;33.40;2.95;;;;;;;22.52;55.81;100670.22;5052588;27;102189;-69